Ghent, New York
Current Conditions -  °F | °C
As of 11:54 AM on Saturday 20 Dec 2014 (Local Time) from KPSF Reporting Station
Overcast Overcast  
Wind Chill: 21°   Ceiling: 2300
Heat Index: 26°   Visibility: 10mi
Dew Point: 18°   Wind: 5mph
Humidity: 71%   Direction: 250°WSW
Pressure: 30.2"   Gusts: NA
Location:  42.33°N, 73.62°W
Report Text: KPSF 201654Z AUTO 25004KT 10SM OVC023 M03/M08 A3020 RMK AO2 SLP244 T10331078
Loading
Personal Weather Stations






























Interactive Weather Map New forecast layout! Learn more

10-Day Weather Forecast

Advertisements
Track Severe Weather on mobile